sensor_id;sensor_type;location;lat;lon;timestamp;P1;durP1;ratioP1;P2;durP2;ratioP2
77322;SDS011;66384;51.052;9.850;2023-08-08T00:02:03;4.20;;;2.50;;
77322;SDS011;66384;51.052;9.850;2023-08-08T00:04:34;4.60;;;2.00;;
77322;SDS011;66384;51.052;9.850;2023-08-08T00:07:06;5.10;;;2.20;;
77322;SDS011;66384;51.052;9.850;2023-08-08T00:09:37;4.30;;;2.20;;
77322;SDS011;66384;51.052;9.850;2023-08-08T00:12:09;3.50;;;2.30;;
77322;SDS011;66384;51.052;9.850;2023-08-08T00:14:41;4.10;;;2.40;;
77322;SDS011;66384;51.052;9.850;2023-08-08T00:17:12;4.90;;;2.30;;
77322;SDS011;66384;51.052;9.850;2023-08-08T00:19:44;5.20;;;2.40;;
77322;SDS011;66384;51.052;9.850;2023-08-08T00:22:16;4.10;;;2.40;;
77322;SDS011;66384;51.052;9.850;2023-08-08T00:24:48;5.20;;;2.50;;
77322;SDS011;66384;51.052;9.850;2023-08-08T00:27:19;5.20;;;2.90;;
77322;SDS011;66384;51.052;9.850;2023-08-08T00:29:51;4.90;;;2.60;;
77322;SDS011;66384;51.052;9.850;2023-08-08T00:32:23;5.60;;;2.80;;
77322;SDS011;66384;51.052;9.850;2023-08-08T00:34:55;5.20;;;2.50;;
77322;SDS011;66384;51.052;9.850;2023-08-08T00:37:26;4.10;;;2.30;;
77322;SDS011;66384;51.052;9.850;2023-08-08T00:39:57;3.40;;;2.50;;
77322;SDS011;66384;51.052;9.850;2023-08-08T00:42:29;5.80;;;2.50;;
77322;SDS011;66384;51.052;9.850;2023-08-08T00:45:00;3.60;;;2.40;;
77322;SDS011;66384;51.052;9.850;2023-08-08T00:47:33;4.40;;;2.60;;
77322;SDS011;66384;51.052;9.850;2023-08-08T00:50:06;3.20;;;2.30;;
77322;SDS011;66384;51.052;9.850;2023-08-08T00:52:38;3.50;;;2.30;;
77322;SDS011;66384;51.052;9.850;2023-08-08T00:55:11;5.30;;;2.50;;
77322;SDS011;66384;51.052;9.850;2023-08-08T00:57:44;5.00;;;2.70;;
77322;SDS011;66384;51.052;9.850;2023-08-08T01:00:16;4.80;;;2.70;;
77322;SDS011;66384;51.052;9.850;2023-08-08T01:02:48;2.90;;;2.20;;
77322;SDS011;66384;51.052;9.850;2023-08-08T01:05:20;6.60;;;2.60;;
77322;SDS011;66384;51.052;9.850;2023-08-08T01:07:54;3.70;;;2.30;;
77322;SDS011;66384;51.052;9.850;2023-08-08T01:10:33;4.70;;;2.50;;
77322;SDS011;66384;51.052;9.850;2023-08-08T01:13:08;4.20;;;2.30;;
77322;SDS011;66384;51.052;9.850;2023-08-08T01:15:44;9.70;;;4.40;;
77322;SDS011;66384;51.052;9.850;2023-08-08T01:18:18;4.20;;;2.40;;
77322;SDS011;66384;51.052;9.850;2023-08-08T01:20:51;5.70;;;2.50;;
77322;SDS011;66384;51.052;9.850;2023-08-08T01:23:26;4.60;;;2.70;;
77322;SDS011;66384;51.052;9.850;2023-08-08T01:26:03;3.50;;;1.90;;
77322;SDS011;66384;51.052;9.850;2023-08-08T01:28:35;4.30;;;2.30;;
77322;SDS011;66384;51.052;9.850;2023-08-08T01:31:06;4.70;;;2.30;;
77322;SDS011;66384;51.052;9.850;2023-08-08T01:33:38;5.50;;;2.60;;
77322;SDS011;66384;51.052;9.850;2023-08-08T01:36:12;4.80;;;1.90;;
77322;SDS011;66384;51.052;9.850;2023-08-08T01:38:51;3.50;;;2.20;;
77322;SDS011;66384;51.052;9.850;2023-08-08T01:41:28;3.60;;;2.00;;
77322;SDS011;66384;51.052;9.850;2023-08-08T01:44:01;6.50;;;2.30;;
77322;SDS011;66384;51.052;9.850;2023-08-08T01:46:34;6.90;;;2.80;;
77322;SDS011;66384;51.052;9.850;2023-08-08T01:49:07;4.10;;;2.30;;
77322;SDS011;66384;51.052;9.850;2023-08-08T01:51:38;5.20;;;2.20;;
77322;SDS011;66384;51.052;9.850;2023-08-08T01:54:10;4.70;;;2.30;;
77322;SDS011;66384;51.052;9.850;2023-08-08T01:56:42;3.80;;;2.00;;
77322;SDS011;66384;51.052;9.850;2023-08-08T01:59:13;3.00;;;1.70;;
77322;SDS011;66384;51.052;9.850;2023-08-08T02:01:45;3.60;;;2.50;;
77322;SDS011;66384;51.052;9.850;2023-08-08T02:04:17;3.80;;;2.00;;
77322;SDS011;66384;51.052;9.850;2023-08-08T02:06:49;4.60;;;2.60;;
77322;SDS011;66384;51.052;9.850;2023-08-08T02:09:20;3.90;;;2.80;;
77322;SDS011;66384;51.052;9.850;2023-08-08T02:11:52;8.60;;;2.60;;
77322;SDS011;66384;51.052;9.850;2023-08-08T02:14:25;3.70;;;2.70;;
77322;SDS011;66384;51.052;9.850;2023-08-08T02:16:56;3.40;;;2.00;;
77322;SDS011;66384;51.052;9.850;2023-08-08T02:19:28;3.40;;;1.90;;
77322;SDS011;66384;51.052;9.850;2023-08-08T02:21:59;5.30;;;1.90;;
77322;SDS011;66384;51.052;9.850;2023-08-08T02:24:31;4.40;;;2.30;;
77322;SDS011;66384;51.052;9.850;2023-08-08T02:27:03;3.10;;;1.90;;
77322;SDS011;66384;51.052;9.850;2023-08-08T02:29:34;4.30;;;2.10;;
77322;SDS011;66384;51.052;9.850;2023-08-08T02:32:07;5.10;;;2.90;;
77322;SDS011;66384;51.052;9.850;2023-08-08T02:34:38;4.50;;;2.40;;
77322;SDS011;66384;51.052;9.850;2023-08-08T02:37:11;7.20;;;2.40;;
77322;SDS011;66384;51.052;9.850;2023-08-08T02:39:42;4.30;;;1.80;;
77322;SDS011;66384;51.052;9.850;2023-08-08T02:42:14;5.40;;;2.90;;
77322;SDS011;66384;51.052;9.850;2023-08-08T02:44:45;4.50;;;2.10;;
77322;SDS011;66384;51.052;9.850;2023-08-08T02:47:17;14.70;;;3.70;;
77322;SDS011;66384;51.052;9.850;2023-08-08T02:49:49;4.40;;;2.80;;
77322;SDS011;66384;51.052;9.850;2023-08-08T02:52:21;4.10;;;2.40;;
77322;SDS011;66384;51.052;9.850;2023-08-08T02:54:52;6.00;;;2.50;;
77322;SDS011;66384;51.052;9.850;2023-08-08T02:57:24;4.10;;;2.10;;
77322;SDS011;66384;51.052;9.850;2023-08-08T02:59:55;3.10;;;2.20;;
77322;SDS011;66384;51.052;9.850;2023-08-08T03:02:27;5.50;;;2.10;;
77322;SDS011;66384;51.052;9.850;2023-08-08T03:04:58;3.00;;;2.10;;
77322;SDS011;66384;51.052;9.850;2023-08-08T03:07:30;2.60;;;1.70;;
77322;SDS011;66384;51.052;9.850;2023-08-08T03:10:02;2.80;;;2.00;;
77322;SDS011;66384;51.052;9.850;2023-08-08T03:12:34;3.10;;;2.10;;
77322;SDS011;66384;51.052;9.850;2023-08-08T03:15:09;3.10;;;1.80;;
77322;SDS011;66384;51.052;9.850;2023-08-08T03:17:41;4.50;;;2.10;;
77322;SDS011;66384;51.052;9.850;2023-08-08T03:20:13;3.90;;;2.30;;
77322;SDS011;66384;51.052;9.850;2023-08-08T03:22:45;5.60;;;2.20;;
77322;SDS011;66384;51.052;9.850;2023-08-08T03:25:17;3.20;;;1.90;;
77322;SDS011;66384;51.052;9.850;2023-08-08T03:27:49;6.40;;;2.60;;
77322;SDS011;66384;51.052;9.850;2023-08-08T03:30:20;6.00;;;2.20;;
77322;SDS011;66384;51.052;9.850;2023-08-08T03:32:52;6.20;;;2.80;;
77322;SDS011;66384;51.052;9.850;2023-08-08T03:35:23;6.50;;;2.30;;
77322;SDS011;66384;51.052;9.850;2023-08-08T03:37:56;2.80;;;2.00;;
77322;SDS011;66384;51.052;9.850;2023-08-08T03:40:27;3.20;;;2.60;;
77322;SDS011;66384;51.052;9.850;2023-08-08T03:43:00;3.00;;;2.20;;
77322;SDS011;66384;51.052;9.850;2023-08-08T03:45:31;4.20;;;2.50;;
77322;SDS011;66384;51.052;9.850;2023-08-08T03:48:03;5.10;;;2.80;;
77322;SDS011;66384;51.052;9.850;2023-08-08T03:50:36;4.10;;;2.10;;
77322;SDS011;66384;51.052;9.850;2023-08-08T03:53:07;3.40;;;2.10;;
77322;SDS011;66384;51.052;9.850;2023-08-08T03:55:39;4.00;;;2.40;;
77322;SDS011;66384;51.052;9.850;2023-08-08T03:58:10;3.20;;;2.60;;
77322;SDS011;66384;51.052;9.850;2023-08-08T04:00:42;5.10;;;2.50;;
77322;SDS011;66384;51.052;9.850;2023-08-08T04:03:16;5.50;;;2.40;;
77322;SDS011;66384;51.052;9.850;2023-08-08T04:05:47;5.20;;;2.90;;
77322;SDS011;66384;51.052;9.850;2023-08-08T04:08:19;3.60;;;2.20;;
77322;SDS011;66384;51.052;9.850;2023-08-08T04:10:51;3.20;;;2.20;;
77322;SDS011;66384;51.052;9.850;2023-08-08T04:13:23;4.60;;;2.70;;
77322;SDS011;66384;51.052;9.850;2023-08-08T04:15:55;7.50;;;2.90;;
77322;SDS011;66384;51.052;9.850;2023-08-08T04:18:26;7.70;;;2.70;;
77322;SDS011;66384;51.052;9.850;2023-08-08T04:20:57;5.80;;;2.60;;
77322;SDS011;66384;51.052;9.850;2023-08-08T04:23:29;3.40;;;2.30;;
77322;SDS011;66384;51.052;9.850;2023-08-08T04:26:01;3.50;;;2.60;;
77322;SDS011;66384;51.052;9.850;2023-08-08T04:28:32;5.50;;;2.30;;
77322;SDS011;66384;51.052;9.850;2023-08-08T04:31:04;3.20;;;2.60;;
77322;SDS011;66384;51.052;9.850;2023-08-08T04:33:35;3.50;;;2.30;;
77322;SDS011;66384;51.052;9.850;2023-08-08T04:36:07;7.10;;;2.40;;
77322;SDS011;66384;51.052;9.850;2023-08-08T04:38:39;3.80;;;2.20;;
77322;SDS011;66384;51.052;9.850;2023-08-08T04:41:10;6.90;;;2.20;;
77322;SDS011;66384;51.052;9.850;2023-08-08T04:43:42;4.40;;;2.30;;
77322;SDS011;66384;51.052;9.850;2023-08-08T04:46:13;3.30;;;2.30;;
77322;SDS011;66384;51.052;9.850;2023-08-08T04:48:45;3.90;;;2.40;;
77322;SDS011;66384;51.052;9.850;2023-08-08T04:51:16;3.90;;;2.10;;
77322;SDS011;66384;51.052;9.850;2023-08-08T04:53:48;3.30;;;2.20;;
77322;SDS011;66384;51.052;9.850;2023-08-08T04:56:19;3.40;;;2.00;;
77322;SDS011;66384;51.052;9.850;2023-08-08T04:58:51;4.40;;;2.30;;
77322;SDS011;66384;51.052;9.850;2023-08-08T05:01:22;4.70;;;2.50;;
77322;SDS011;66384;51.052;9.850;2023-08-08T05:03:54;3.10;;;2.20;;
77322;SDS011;66384;51.052;9.850;2023-08-08T05:06:26;3.90;;;2.70;;
77322;SDS011;66384;51.052;9.850;2023-08-08T05:08:57;2.90;;;2.10;;
77322;SDS011;66384;51.052;9.850;2023-08-08T05:11:29;5.60;;;2.30;;
77322;SDS011;66384;51.052;9.850;2023-08-08T05:14:00;3.80;;;1.80;;
77322;SDS011;66384;51.052;9.850;2023-08-08T05:16:32;3.50;;;2.30;;
77322;SDS011;66384;51.052;9.850;2023-08-08T05:19:03;5.40;;;2.40;;
77322;SDS011;66384;51.052;9.850;2023-08-08T05:21:35;6.30;;;2.30;;
77322;SDS011;66384;51.052;9.850;2023-08-08T05:24:06;7.90;;;2.80;;
77322;SDS011;66384;51.052;9.850;2023-08-08T05:26:38;5.50;;;2.20;;
77322;SDS011;66384;51.052;9.850;2023-08-08T05:29:09;3.30;;;2.10;;
77322;SDS011;66384;51.052;9.850;2023-08-08T05:31:41;5.90;;;2.40;;
77322;SDS011;66384;51.052;9.850;2023-08-08T05:34:12;4.40;;;2.40;;
77322;SDS011;66384;51.052;9.850;2023-08-08T05:36:44;2.80;;;1.90;;
77322;SDS011;66384;51.052;9.850;2023-08-08T05:39:19;6.80;;;2.40;;
77322;SDS011;66384;51.052;9.850;2023-08-08T05:41:51;3.50;;;1.80;;
77322;SDS011;66384;51.052;9.850;2023-08-08T05:44:23;3.60;;;2.30;;
77322;SDS011;66384;51.052;9.850;2023-08-08T05:46:54;3.40;;;1.80;;
77322;SDS011;66384;51.052;9.850;2023-08-08T05:49:26;4.30;;;2.00;;
77322;SDS011;66384;51.052;9.850;2023-08-08T05:51:57;3.00;;;2.00;;
77322;SDS011;66384;51.052;9.850;2023-08-08T05:54:30;2.30;;;2.00;;
77322;SDS011;66384;51.052;9.850;2023-08-08T05:57:01;3.20;;;2.20;;
77322;SDS011;66384;51.052;9.850;2023-08-08T05:59:33;4.60;;;2.30;;
77322;SDS011;66384;51.052;9.850;2023-08-08T06:02:05;2.40;;;1.90;;
77322;SDS011;66384;51.052;9.850;2023-08-08T06:04:37;4.40;;;2.30;;
77322;SDS011;66384;51.052;9.850;2023-08-08T06:07:09;4.10;;;1.90;;
77322;SDS011;66384;51.052;9.850;2023-08-08T06:09:40;3.60;;;1.90;;
77322;SDS011;66384;51.052;9.850;2023-08-08T06:12:12;5.60;;;2.30;;
77322;SDS011;66384;51.052;9.850;2023-08-08T06:14:43;5.70;;;2.30;;
77322;SDS011;66384;51.052;9.850;2023-08-08T06:17:16;3.80;;;2.10;;
77322;SDS011;66384;51.052;9.850;2023-08-08T06:19:47;3.80;;;2.30;;
77322;SDS011;66384;51.052;9.850;2023-08-08T06:22:19;2.50;;;1.80;;
77322;SDS011;66384;51.052;9.850;2023-08-08T06:24:52;5.90;;;2.10;;
77322;SDS011;66384;51.052;9.850;2023-08-08T06:27:23;4.10;;;1.70;;
77322;SDS011;66384;51.052;9.850;2023-08-08T06:29:55;3.40;;;2.30;;
77322;SDS011;66384;51.052;9.850;2023-08-08T06:32:28;3.50;;;2.20;;
77322;SDS011;66384;51.052;9.850;2023-08-08T06:34:59;4.00;;;2.10;;
77322;SDS011;66384;51.052;9.850;2023-08-08T06:37:31;4.10;;;2.20;;
77322;SDS011;66384;51.052;9.850;2023-08-08T06:40:04;4.50;;;2.00;;
77322;SDS011;66384;51.052;9.850;2023-08-08T06:42:38;4.50;;;2.00;;
77322;SDS011;66384;51.052;9.850;2023-08-08T06:45:10;6.10;;;2.60;;
77322;SDS011;66384;51.052;9.850;2023-08-08T06:47:41;3.30;;;2.20;;
77322;SDS011;66384;51.052;9.850;2023-08-08T06:50:13;4.60;;;2.20;;
77322;SDS011;66384;51.052;9.850;2023-08-08T06:52:46;3.90;;;2.30;;
77322;SDS011;66384;51.052;9.850;2023-08-08T06:55:18;4.70;;;1.90;;
77322;SDS011;66384;51.052;9.850;2023-08-08T06:57:49;3.30;;;2.20;;
77322;SDS011;66384;51.052;9.850;2023-08-08T07:00:21;4.00;;;2.10;;
77322;SDS011;66384;51.052;9.850;2023-08-08T07:02:55;3.60;;;2.10;;
77322;SDS011;66384;51.052;9.850;2023-08-08T07:05:30;3.90;;;2.40;;
77322;SDS011;66384;51.052;9.850;2023-08-08T07:08:02;3.90;;;2.10;;
77322;SDS011;66384;51.052;9.850;2023-08-08T07:10:34;4.50;;;2.20;;
77322;SDS011;66384;51.052;9.850;2023-08-08T07:13:06;3.80;;;2.10;;
77322;SDS011;66384;51.052;9.850;2023-08-08T07:15:38;4.80;;;2.00;;
77322;SDS011;66384;51.052;9.850;2023-08-08T07:18:09;4.00;;;2.00;;
77322;SDS011;66384;51.052;9.850;2023-08-08T07:20:41;5.20;;;2.70;;
77322;SDS011;66384;51.052;9.850;2023-08-08T07:23:13;3.40;;;2.10;;
77322;SDS011;66384;51.052;9.850;2023-08-08T07:25:46;4.20;;;2.20;;
77322;SDS011;66384;51.052;9.850;2023-08-08T07:28:19;5.70;;;2.50;;
77322;SDS011;66384;51.052;9.850;2023-08-08T07:30:51;3.60;;;1.90;;
77322;SDS011;66384;51.052;9.850;2023-08-08T07:33:22;4.60;;;2.40;;
77322;SDS011;66384;51.052;9.850;2023-08-08T07:35:54;3.80;;;1.90;;
77322;SDS011;66384;51.052;9.850;2023-08-08T07:38:25;4.50;;;2.20;;
77322;SDS011;66384;51.052;9.850;2023-08-08T07:40:57;6.50;;;2.30;;
77322;SDS011;66384;51.052;9.850;2023-08-08T07:43:28;4.50;;;2.20;;
77322;SDS011;66384;51.052;9.850;2023-08-08T07:46:00;12.50;;;2.50;;
77322;SDS011;66384;51.052;9.850;2023-08-08T07:48:32;4.60;;;2.20;;
77322;SDS011;66384;51.052;9.850;2023-08-08T07:51:03;5.40;;;2.30;;
77322;SDS011;66384;51.052;9.850;2023-08-08T07:53:35;3.70;;;2.10;;
77322;SDS011;66384;51.052;9.850;2023-08-08T07:56:06;4.70;;;2.40;;
77322;SDS011;66384;51.052;9.850;2023-08-08T07:58:38;3.00;;;2.00;;
77322;SDS011;66384;51.052;9.850;2023-08-08T08:01:09;5.20;;;2.10;;
77322;SDS011;66384;51.052;9.850;2023-08-08T08:03:42;3.30;;;2.20;;
77322;SDS011;66384;51.052;9.850;2023-08-08T08:06:15;5.80;;;2.40;;
77322;SDS011;66384;51.052;9.850;2023-08-08T08:08:46;5.30;;;2.40;;
77322;SDS011;66384;51.052;9.850;2023-08-08T08:11:18;4.90;;;2.60;;
77322;SDS011;66384;51.052;9.850;2023-08-08T08:13:49;4.80;;;2.40;;
77322;SDS011;66384;51.052;9.850;2023-08-08T08:16:21;5.30;;;2.40;;
77322;SDS011;66384;51.052;9.850;2023-08-08T08:18:52;3.10;;;2.20;;
77322;SDS011;66384;51.052;9.850;2023-08-08T08:21:24;4.10;;;2.10;;
77322;SDS011;66384;51.052;9.850;2023-08-08T08:23:56;4.90;;;2.60;;
77322;SDS011;66384;51.052;9.850;2023-08-08T08:26:27;5.50;;;2.40;;
77322;SDS011;66384;51.052;9.850;2023-08-08T08:28:59;4.00;;;2.00;;
77322;SDS011;66384;51.052;9.850;2023-08-08T08:31:30;5.00;;;2.70;;
77322;SDS011;66384;51.052;9.850;2023-08-08T08:34:02;4.90;;;2.30;;
77322;SDS011;66384;51.052;9.850;2023-08-08T08:36:34;4.30;;;2.90;;
77322;SDS011;66384;51.052;9.850;2023-08-08T08:39:06;5.70;;;2.40;;
77322;SDS011;66384;51.052;9.850;2023-08-08T08:41:38;4.50;;;2.10;;
77322;SDS011;66384;51.052;9.850;2023-08-08T08:44:09;3.60;;;2.10;;
77322;SDS011;66384;51.052;9.850;2023-08-08T08:46:42;4.90;;;2.60;;
77322;SDS011;66384;51.052;9.850;2023-08-08T08:49:16;4.90;;;2.40;;
77322;SDS011;66384;51.052;9.850;2023-08-08T08:51:51;4.40;;;2.20;;
77322;SDS011;66384;51.052;9.850;2023-08-08T08:54:23;4.90;;;2.10;;
77322;SDS011;66384;51.052;9.850;2023-08-08T08:56:55;5.60;;;2.20;;
77322;SDS011;66384;51.052;9.850;2023-08-08T08:59:27;3.50;;;2.70;;
77322;SDS011;66384;51.052;9.850;2023-08-08T09:01:59;4.60;;;2.40;;
77322;SDS011;66384;51.052;9.850;2023-08-08T09:04:32;4.70;;;2.60;;
77322;SDS011;66384;51.052;9.850;2023-08-08T09:07:05;4.40;;;2.20;;
77322;SDS011;66384;51.052;9.850;2023-08-08T09:09:39;4.20;;;2.50;;
77322;SDS011;66384;51.052;9.850;2023-08-08T09:12:13;5.80;;;2.40;;
77322;SDS011;66384;51.052;9.850;2023-08-08T09:14:47;4.00;;;2.30;;
77322;SDS011;66384;51.052;9.850;2023-08-08T09:17:25;4.50;;;2.40;;
77322;SDS011;66384;51.052;9.850;2023-08-08T09:20:15;3.90;;;2.30;;
77322;SDS011;66384;51.052;9.850;2023-08-08T09:22:48;4.30;;;2.40;;
77322;SDS011;66384;51.052;9.850;2023-08-08T09:25:21;3.40;;;2.30;;
77322;SDS011;66384;51.052;9.850;2023-08-08T09:27:53;4.00;;;2.40;;
77322;SDS011;66384;51.052;9.850;2023-08-08T09:30:25;5.50;;;2.80;;
77322;SDS011;66384;51.052;9.850;2023-08-08T09:33:01;5.50;;;2.50;;
77322;SDS011;66384;51.052;9.850;2023-08-08T09:35:34;4.60;;;2.40;;
77322;SDS011;66384;51.052;9.850;2023-08-08T09:38:07;5.10;;;2.60;;
77322;SDS011;66384;51.052;9.850;2023-08-08T09:40:39;5.00;;;2.80;;
77322;SDS011;66384;51.052;9.850;2023-08-08T09:43:12;3.70;;;2.60;;
77322;SDS011;66384;51.052;9.850;2023-08-08T09:45:44;3.60;;;2.90;;
77322;SDS011;66384;51.052;9.850;2023-08-08T09:48:17;4.10;;;2.80;;
77322;SDS011;66384;51.052;9.850;2023-08-08T09:50:50;6.60;;;3.10;;
77322;SDS011;66384;51.052;9.850;2023-08-08T09:53:22;4.90;;;3.30;;
77322;SDS011;66384;51.052;9.850;2023-08-08T09:55:54;6.00;;;3.40;;
77322;SDS011;66384;51.052;9.850;2023-08-08T09:58:26;6.30;;;3.70;;
77322;SDS011;66384;51.052;9.850;2023-08-08T10:00:57;7.00;;;3.50;;
77322;SDS011;66384;51.052;9.850;2023-08-08T10:03:30;6.90;;;3.50;;
77322;SDS011;66384;51.052;9.850;2023-08-08T10:06:03;5.20;;;3.20;;
77322;SDS011;66384;51.052;9.850;2023-08-08T10:08:35;4.60;;;3.40;;
77322;SDS011;66384;51.052;9.850;2023-08-08T10:11:06;5.80;;;3.00;;
77322;SDS011;66384;51.052;9.850;2023-08-08T10:13:46;4.60;;;2.90;;
77322;SDS011;66384;51.052;9.850;2023-08-08T10:16:19;5.40;;;3.20;;
77322;SDS011;66384;51.052;9.850;2023-08-08T10:18:57;5.80;;;3.30;;
77322;SDS011;66384;51.052;9.850;2023-08-08T10:21:33;3.20;;;2.40;;
77322;SDS011;66384;51.052;9.850;2023-08-08T10:24:07;5.10;;;3.20;;
77322;SDS011;66384;51.052;9.850;2023-08-08T10:29:27;5.50;;;3.40;;
77322;SDS011;66384;51.052;9.850;2023-08-08T10:32:00;4.20;;;3.30;;
77322;SDS011;66384;51.052;9.850;2023-08-08T10:34:41;6.40;;;3.20;;
77322;SDS011;66384;51.052;9.850;2023-08-08T10:37:14;5.20;;;4.00;;
77322;SDS011;66384;51.052;9.850;2023-08-08T10:39:51;4.50;;;3.00;;
77322;SDS011;66384;51.052;9.850;2023-08-08T10:42:24;4.80;;;3.00;;
77322;SDS011;66384;51.052;9.850;2023-08-08T10:45:03;5.30;;;3.20;;
77322;SDS011;66384;51.052;9.850;2023-08-08T10:47:39;6.40;;;4.10;;
77322;SDS011;66384;51.052;9.850;2023-08-08T10:50:12;5.30;;;3.10;;
77322;SDS011;66384;51.052;9.850;2023-08-08T10:52:52;5.10;;;3.00;;
77322;SDS011;66384;51.052;9.850;2023-08-08T10:55:25;6.60;;;3.80;;
77322;SDS011;66384;51.052;9.850;2023-08-08T10:58:04;5.50;;;4.20;;
77322;SDS011;66384;51.052;9.850;2023-08-08T11:00:37;5.50;;;3.30;;
77322;SDS011;66384;51.052;9.850;2023-08-08T11:03:09;4.20;;;2.60;;
77322;SDS011;66384;51.052;9.850;2023-08-08T11:05:41;8.40;;;4.10;;
77322;SDS011;66384;51.052;9.850;2023-08-08T11:08:21;4.90;;;3.20;;
77322;SDS011;66384;51.052;9.850;2023-08-08T11:10:53;4.30;;;2.70;;
77322;SDS011;66384;51.052;9.850;2023-08-08T11:13:25;6.00;;;2.90;;
77322;SDS011;66384;51.052;9.850;2023-08-08T11:15:57;4.60;;;3.60;;
77322;SDS011;66384;51.052;9.850;2023-08-08T11:18:30;4.10;;;3.20;;
77322;SDS011;66384;51.052;9.850;2023-08-08T11:21:08;3.80;;;3.00;;
77322;SDS011;66384;51.052;9.850;2023-08-08T11:23:47;7.40;;;3.00;;
77322;SDS011;66384;51.052;9.850;2023-08-08T11:26:19;5.00;;;2.90;;
77322;SDS011;66384;51.052;9.850;2023-08-08T11:28:51;3.70;;;2.80;;
77322;SDS011;66384;51.052;9.850;2023-08-08T11:31:23;5.50;;;3.60;;
77322;SDS011;66384;51.052;9.850;2023-08-08T11:33:57;4.60;;;2.80;;
77322;SDS011;66384;51.052;9.850;2023-08-08T11:36:30;4.40;;;3.10;;
77322;SDS011;66384;51.052;9.850;2023-08-08T11:39:03;5.40;;;3.10;;
77322;SDS011;66384;51.052;9.850;2023-08-08T11:41:38;3.70;;;2.90;;
77322;SDS011;66384;51.052;9.850;2023-08-08T11:44:11;4.80;;;2.90;;
77322;SDS011;66384;51.052;9.850;2023-08-08T11:46:46;5.70;;;3.20;;
77322;SDS011;66384;51.052;9.850;2023-08-08T11:49:18;5.40;;;3.10;;
77322;SDS011;66384;51.052;9.850;2023-08-08T11:51:49;4.90;;;2.50;;
77322;SDS011;66384;51.052;9.850;2023-08-08T11:54:24;4.50;;;2.60;;
77322;SDS011;66384;51.052;9.850;2023-08-08T11:56:58;7.20;;;2.90;;
77322;SDS011;66384;51.052;9.850;2023-08-08T11:59:30;4.40;;;2.60;;
77322;SDS011;66384;51.052;9.850;2023-08-08T12:02:02;6.70;;;3.30;;
77322;SDS011;66384;51.052;9.850;2023-08-08T12:04:34;5.20;;;3.10;;
77322;SDS011;66384;51.052;9.850;2023-08-08T12:07:06;5.50;;;2.90;;
77322;SDS011;66384;51.052;9.850;2023-08-08T12:09:39;3.90;;;2.50;;
77322;SDS011;66384;51.052;9.850;2023-08-08T12:12:11;4.80;;;3.50;;
77322;SDS011;66384;51.052;9.850;2023-08-08T12:14:47;5.80;;;3.40;;
77322;SDS011;66384;51.052;9.850;2023-08-08T12:17:36;4.70;;;2.70;;
77322;SDS011;66384;51.052;9.850;2023-08-08T12:20:08;7.00;;;3.10;;
77322;SDS011;66384;51.052;9.850;2023-08-08T12:22:41;5.30;;;3.40;;
77322;SDS011;66384;51.052;9.850;2023-08-08T12:25:12;5.60;;;3.70;;
77322;SDS011;66384;51.052;9.850;2023-08-08T12:27:44;10.90;;;3.80;;
77322;SDS011;66384;51.052;9.850;2023-08-08T12:30:18;6.30;;;3.90;;
77322;SDS011;66384;51.052;9.850;2023-08-08T12:32:50;8.50;;;3.90;;
77322;SDS011;66384;51.052;9.850;2023-08-08T12:35:22;4.00;;;2.90;;
77322;SDS011;66384;51.052;9.850;2023-08-08T12:37:55;7.40;;;4.00;;
77322;SDS011;66384;51.052;9.850;2023-08-08T12:40:27;5.10;;;3.20;;
77322;SDS011;66384;51.052;9.850;2023-08-08T12:42:58;7.80;;;4.00;;
77322;SDS011;66384;51.052;9.850;2023-08-08T12:45:30;5.60;;;3.20;;
77322;SDS011;66384;51.052;9.850;2023-08-08T12:48:01;7.20;;;4.10;;
77322;SDS011;66384;51.052;9.850;2023-08-08T12:50:33;3.70;;;3.00;;
77322;SDS011;66384;51.052;9.850;2023-08-08T12:53:06;4.50;;;3.20;;
77322;SDS011;66384;51.052;9.850;2023-08-08T12:55:38;7.40;;;3.40;;
77322;SDS011;66384;51.052;9.850;2023-08-08T12:58:09;5.40;;;3.40;;
77322;SDS011;66384;51.052;9.850;2023-08-08T13:00:41;5.30;;;3.20;;
77322;SDS011;66384;51.052;9.850;2023-08-08T13:03:13;4.70;;;3.50;;
77322;SDS011;66384;51.052;9.850;2023-08-08T13:05:44;4.10;;;2.90;;
77322;SDS011;66384;51.052;9.850;2023-08-08T13:08:16;6.00;;;3.20;;
77322;SDS011;66384;51.052;9.850;2023-08-08T13:10:48;6.30;;;3.20;;
77322;SDS011;66384;51.052;9.850;2023-08-08T13:13:21;4.30;;;2.90;;
77322;SDS011;66384;51.052;9.850;2023-08-08T13:15:54;7.00;;;3.20;;
77322;SDS011;66384;51.052;9.850;2023-08-08T13:18:26;6.30;;;3.60;;
77322;SDS011;66384;51.052;9.850;2023-08-08T13:20:57;7.30;;;3.60;;
77322;SDS011;66384;51.052;9.850;2023-08-08T13:23:29;6.00;;;2.80;;
77322;SDS011;66384;51.052;9.850;2023-08-08T13:26:01;5.30;;;2.90;;
77322;SDS011;66384;51.052;9.850;2023-08-08T13:28:32;5.20;;;3.30;;
77322;SDS011;66384;51.052;9.850;2023-08-08T13:31:04;7.70;;;3.40;;
77322;SDS011;66384;51.052;9.850;2023-08-08T13:33:37;5.90;;;2.70;;
77322;SDS011;66384;51.052;9.850;2023-08-08T13:36:08;6.30;;;3.40;;
77322;SDS011;66384;51.052;9.850;2023-08-08T13:38:40;5.30;;;2.90;;
77322;SDS011;66384;51.052;9.850;2023-08-08T13:41:11;5.10;;;3.10;;
77322;SDS011;66384;51.052;9.850;2023-08-08T13:43:43;5.60;;;3.20;;
77322;SDS011;66384;51.052;9.850;2023-08-08T13:46:14;4.50;;;3.50;;
77322;SDS011;66384;51.052;9.850;2023-08-08T13:48:46;7.70;;;3.40;;
77322;SDS011;66384;51.052;9.850;2023-08-08T13:51:17;5.80;;;3.20;;
77322;SDS011;66384;51.052;9.850;2023-08-08T13:53:49;3.70;;;2.70;;
77322;SDS011;66384;51.052;9.850;2023-08-08T13:56:21;4.30;;;2.70;;
77322;SDS011;66384;51.052;9.850;2023-08-08T13:58:52;6.70;;;4.10;;
77322;SDS011;66384;51.052;9.850;2023-08-08T14:01:24;8.50;;;3.90;;
77322;SDS011;66384;51.052;9.850;2023-08-08T14:03:56;6.10;;;3.30;;
77322;SDS011;66384;51.052;9.850;2023-08-08T14:06:28;6.80;;;3.70;;
77322;SDS011;66384;51.052;9.850;2023-08-08T14:08:59;5.60;;;3.60;;
77322;SDS011;66384;51.052;9.850;2023-08-08T14:11:32;5.80;;;3.70;;
77322;SDS011;66384;51.052;9.850;2023-08-08T14:14:04;5.90;;;3.30;;
77322;SDS011;66384;51.052;9.850;2023-08-08T14:16:35;5.50;;;3.80;;
77322;SDS011;66384;51.052;9.850;2023-08-08T14:19:07;6.90;;;3.70;;
77322;SDS011;66384;51.052;9.850;2023-08-08T14:21:39;6.20;;;3.30;;
77322;SDS011;66384;51.052;9.850;2023-08-08T14:24:10;6.10;;;2.60;;
77322;SDS011;66384;51.052;9.850;2023-08-08T14:26:41;5.50;;;3.30;;
77322;SDS011;66384;51.052;9.850;2023-08-08T14:29:13;4.70;;;3.30;;
77322;SDS011;66384;51.052;9.850;2023-08-08T14:31:45;4.20;;;2.90;;
77322;SDS011;66384;51.052;9.850;2023-08-08T14:34:31;6.40;;;3.00;;
77322;SDS011;66384;51.052;9.850;2023-08-08T14:37:06;6.20;;;3.10;;
77322;SDS011;66384;51.052;9.850;2023-08-08T14:39:37;5.90;;;2.60;;
77322;SDS011;66384;51.052;9.850;2023-08-08T14:42:09;4.80;;;3.10;;
77322;SDS011;66384;51.052;9.850;2023-08-08T14:44:40;5.60;;;3.30;;
77322;SDS011;66384;51.052;9.850;2023-08-08T14:47:12;5.40;;;2.90;;
77322;SDS011;66384;51.052;9.850;2023-08-08T14:49:43;3.80;;;2.70;;
77322;SDS011;66384;51.052;9.850;2023-08-08T14:52:15;4.30;;;2.50;;
77322;SDS011;66384;51.052;9.850;2023-08-08T14:54:47;6.00;;;2.90;;
77322;SDS011;66384;51.052;9.850;2023-08-08T14:57:18;7.80;;;3.00;;
77322;SDS011;66384;51.052;9.850;2023-08-08T14:59:50;4.60;;;2.70;;
77322;SDS011;66384;51.052;9.850;2023-08-08T15:02:22;5.90;;;3.50;;
77322;SDS011;66384;51.052;9.850;2023-08-08T15:04:54;4.60;;;3.20;;
77322;SDS011;66384;51.052;9.850;2023-08-08T15:07:25;7.80;;;3.30;;
77322;SDS011;66384;51.052;9.850;2023-08-08T15:09:57;5.00;;;3.00;;
77322;SDS011;66384;51.052;9.850;2023-08-08T15:12:29;4.30;;;3.30;;
77322;SDS011;66384;51.052;9.850;2023-08-08T15:15:00;6.30;;;3.40;;
77322;SDS011;66384;51.052;9.850;2023-08-08T15:17:33;5.10;;;2.80;;
77322;SDS011;66384;51.052;9.850;2023-08-08T15:20:06;6.30;;;2.60;;
77322;SDS011;66384;51.052;9.850;2023-08-08T15:22:39;3.90;;;2.70;;